sensor_id;sensor_type;location;lat;lon;timestamp;P1;durP1;ratioP1;P2;durP2;ratioP2
8592;SDS011;4334;49.982;8.398;2022-11-13T00:00:34;59.57;;;17.40;;
8592;SDS011;4334;49.982;8.398;2022-11-13T00:03:01;109.20;;;18.80;;
8592;SDS011;4334;49.982;8.398;2022-11-13T00:05:28;108.23;;;19.90;;
8592;SDS011;4334;49.982;8.398;2022-11-13T00:07:55;70.27;;;19.83;;
8592;SDS011;4334;49.982;8.398;2022-11-13T00:10:22;96.13;;;19.30;;
8592;SDS011;4334;49.982;8.398;2022-11-13T00:12:49;95.63;;;19.97;;
8592;SDS011;4334;49.982;8.398;2022-11-13T00:15:15;96.10;;;19.67;;
8592;SDS011;4334;49.982;8.398;2022-11-13T00:17:44;97.40;;;18.03;;
8592;SDS011;4334;49.982;8.398;2022-11-13T00:20:11;82.67;;;17.37;;
8592;SDS011;4334;49.982;8.398;2022-11-13T00:22:37;60.17;;;16.73;;
8592;SDS011;4334;49.982;8.398;2022-11-13T00:25:04;93.00;;;17.67;;
8592;SDS011;4334;49.982;8.398;2022-11-13T00:27:31;65.23;;;17.10;;
8592;SDS011;4334;49.982;8.398;2022-11-13T00:29:58;110.83;;;17.60;;
8592;SDS011;4334;49.982;8.398;2022-11-13T00:32:25;118.97;;;18.83;;
8592;SDS011;4334;49.982;8.398;2022-11-13T00:34:53;131.53;;;19.47;;
8592;SDS011;4334;49.982;8.398;2022-11-13T00:37:20;134.67;;;18.57;;
8592;SDS011;4334;49.982;8.398;2022-11-13T00:39:47;151.47;;;19.20;;
8592;SDS011;4334;49.982;8.398;2022-11-13T00:42:14;113.97;;;17.20;;
8592;SDS011;4334;49.982;8.398;2022-11-13T00:44:41;103.93;;;18.10;;
8592;SDS011;4334;49.982;8.398;2022-11-13T00:47:08;46.63;;;16.40;;
8592;SDS011;4334;49.982;8.398;2022-11-13T00:49:34;102.37;;;18.10;;
8592;SDS011;4334;49.982;8.398;2022-11-13T00:52:03;189.50;;;21.57;;
8592;SDS011;4334;49.982;8.398;2022-11-13T00:54:30;108.57;;;19.17;;
8592;SDS011;4334;49.982;8.398;2022-11-13T00:56:57;62.83;;;18.47;;
8592;SDS011;4334;49.982;8.398;2022-11-13T00:59:23;92.90;;;18.10;;
8592;SDS011;4334;49.982;8.398;2022-11-13T01:01:50;62.20;;;18.20;;
8592;SDS011;4334;49.982;8.398;2022-11-13T01:04:18;140.23;;;20.87;;
8592;SDS011;4334;49.982;8.398;2022-11-13T01:06:44;87.57;;;18.07;;
8592;SDS011;4334;49.982;8.398;2022-11-13T01:09:12;118.47;;;20.00;;
8592;SDS011;4334;49.982;8.398;2022-11-13T01:11:40;59.73;;;19.53;;
8592;SDS011;4334;49.982;8.398;2022-11-13T01:14:07;113.93;;;20.93;;
8592;SDS011;4334;49.982;8.398;2022-11-13T01:16:34;61.80;;;19.10;;
8592;SDS011;4334;49.982;8.398;2022-11-13T01:19:01;128.33;;;21.80;;
8592;SDS011;4334;49.982;8.398;2022-11-13T01:21:28;166.30;;;22.43;;
8592;SDS011;4334;49.982;8.398;2022-11-13T01:23:55;92.67;;;20.27;;
8592;SDS011;4334;49.982;8.398;2022-11-13T01:26:24;100.43;;;20.90;;
8592;SDS011;4334;49.982;8.398;2022-11-13T01:28:54;68.70;;;19.10;;
8592;SDS011;4334;49.982;8.398;2022-11-13T01:31:24;92.23;;;18.93;;
8592;SDS011;4334;49.982;8.398;2022-11-13T01:33:52;86.50;;;19.50;;
8592;SDS011;4334;49.982;8.398;2022-11-13T01:36:19;115.43;;;19.33;;
8592;SDS011;4334;49.982;8.398;2022-11-13T01:38:48;97.23;;;20.27;;
8592;SDS011;4334;49.982;8.398;2022-11-13T01:41:17;101.83;;;19.67;;
8592;SDS011;4334;49.982;8.398;2022-11-13T01:43:46;65.63;;;18.33;;
8592;SDS011;4334;49.982;8.398;2022-11-13T01:46:21;60.13;;;17.57;;
8592;SDS011;4334;49.982;8.398;2022-11-13T01:48:51;37.67;;;18.17;;
8592;SDS011;4334;49.982;8.398;2022-11-13T01:51:25;90.27;;;19.90;;
8592;SDS011;4334;49.982;8.398;2022-11-13T01:53:55;52.70;;;19.13;;
8592;SDS011;4334;49.982;8.398;2022-11-13T01:56:23;57.93;;;19.13;;
8592;SDS011;4334;49.982;8.398;2022-11-13T01:58:53;57.47;;;18.10;;
8592;SDS011;4334;49.982;8.398;2022-11-13T02:01:25;62.90;;;17.40;;
8592;SDS011;4334;49.982;8.398;2022-11-13T02:03:52;49.23;;;18.77;;
8592;SDS011;4334;49.982;8.398;2022-11-13T02:06:19;47.90;;;17.33;;
8592;SDS011;4334;49.982;8.398;2022-11-13T02:08:46;91.23;;;18.17;;
8592;SDS011;4334;49.982;8.398;2022-11-13T02:11:16;39.70;;;17.07;;
8592;SDS011;4334;49.982;8.398;2022-11-13T02:13:43;35.73;;;16.20;;
8592;SDS011;4334;49.982;8.398;2022-11-13T02:16:20;59.30;;;17.57;;
8592;SDS011;4334;49.982;8.398;2022-11-13T02:18:48;52.03;;;17.73;;
8592;SDS011;4334;49.982;8.398;2022-11-13T02:21:19;61.70;;;16.93;;
8592;SDS011;4334;49.982;8.398;2022-11-13T02:23:56;24.60;;;14.97;;
8592;SDS011;4334;49.982;8.398;2022-11-13T02:26:31;56.13;;;16.20;;
8592;SDS011;4334;49.982;8.398;2022-11-13T02:28:59;45.13;;;15.77;;
8592;SDS011;4334;49.982;8.398;2022-11-13T02:31:25;44.37;;;16.70;;
8592;SDS011;4334;49.982;8.398;2022-11-13T02:33:52;40.20;;;16.00;;
8592;SDS011;4334;49.982;8.398;2022-11-13T02:36:20;43.27;;;15.70;;
8592;SDS011;4334;49.982;8.398;2022-11-13T02:38:50;49.30;;;15.83;;
8592;SDS011;4334;49.982;8.398;2022-11-13T02:41:19;50.70;;;16.20;;
8592;SDS011;4334;49.982;8.398;2022-11-13T02:43:47;49.87;;;17.13;;
8592;SDS011;4334;49.982;8.398;2022-11-13T02:46:14;46.17;;;16.00;;
8592;SDS011;4334;49.982;8.398;2022-11-13T02:48:41;29.27;;;15.00;;
8592;SDS011;4334;49.982;8.398;2022-11-13T02:51:07;35.13;;;15.67;;
8592;SDS011;4334;49.982;8.398;2022-11-13T02:53:34;51.93;;;17.33;;
8592;SDS011;4334;49.982;8.398;2022-11-13T02:56:01;108.80;;;19.80;;
8592;SDS011;4334;49.982;8.398;2022-11-13T02:58:28;45.80;;;17.03;;
8592;SDS011;4334;49.982;8.398;2022-11-13T03:00:56;32.77;;;15.90;;
8592;SDS011;4334;49.982;8.398;2022-11-13T03:03:23;38.37;;;16.17;;
8592;SDS011;4334;49.982;8.398;2022-11-13T03:05:49;52.97;;;18.03;;
8592;SDS011;4334;49.982;8.398;2022-11-13T03:08:16;50.63;;;17.13;;
8592;SDS011;4334;49.982;8.398;2022-11-13T03:10:44;75.13;;;17.53;;
8592;SDS011;4334;49.982;8.398;2022-11-13T03:13:11;81.43;;;17.90;;
8592;SDS011;4334;49.982;8.398;2022-11-13T03:15:38;38.97;;;16.13;;
8592;SDS011;4334;49.982;8.398;2022-11-13T03:18:06;68.80;;;16.13;;
8592;SDS011;4334;49.982;8.398;2022-11-13T03:20:34;61.30;;;16.23;;
8592;SDS011;4334;49.982;8.398;2022-11-13T03:23:02;109.73;;;18.83;;
8592;SDS011;4334;49.982;8.398;2022-11-13T03:25:30;51.67;;;16.93;;
8592;SDS011;4334;49.982;8.398;2022-11-13T03:27:57;110.67;;;17.80;;
8592;SDS011;4334;49.982;8.398;2022-11-13T03:30:24;137.30;;;18.83;;
8592;SDS011;4334;49.982;8.398;2022-11-13T03:32:52;154.60;;;18.13;;
8592;SDS011;4334;49.982;8.398;2022-11-13T03:35:20;138.43;;;17.27;;
8592;SDS011;4334;49.982;8.398;2022-11-13T03:37:47;127.73;;;16.40;;
8592;SDS011;4334;49.982;8.398;2022-11-13T03:40:14;69.23;;;14.97;;
8592;SDS011;4334;49.982;8.398;2022-11-13T03:42:42;101.67;;;15.43;;
8592;SDS011;4334;49.982;8.398;2022-11-13T03:45:09;75.37;;;14.63;;
8592;SDS011;4334;49.982;8.398;2022-11-13T03:47:35;136.80;;;16.43;;
8592;SDS011;4334;49.982;8.398;2022-11-13T03:50:03;102.53;;;15.60;;
8592;SDS011;4334;49.982;8.398;2022-11-13T03:52:31;62.97;;;13.33;;
8592;SDS011;4334;49.982;8.398;2022-11-13T03:54:58;115.17;;;16.33;;
8592;SDS011;4334;49.982;8.398;2022-11-13T03:57:25;87.13;;;15.33;;
8592;SDS011;4334;49.982;8.398;2022-11-13T03:59:52;61.50;;;15.43;;
8592;SDS011;4334;49.982;8.398;2022-11-13T04:02:19;65.07;;;15.17;;
8592;SDS011;4334;49.982;8.398;2022-11-13T04:04:46;111.27;;;15.83;;
8592;SDS011;4334;49.982;8.398;2022-11-13T04:07:13;138.33;;;17.30;;
8592;SDS011;4334;49.982;8.398;2022-11-13T04:09:41;80.77;;;14.83;;
8592;SDS011;4334;49.982;8.398;2022-11-13T04:12:08;101.53;;;15.77;;
8592;SDS011;4334;49.982;8.398;2022-11-13T04:14:35;37.43;;;14.33;;
8592;SDS011;4334;49.982;8.398;2022-11-13T04:17:01;128.87;;;17.67;;
8592;SDS011;4334;49.982;8.398;2022-11-13T04:19:28;84.83;;;15.77;;
8592;SDS011;4334;49.982;8.398;2022-11-13T04:21:55;96.80;;;15.73;;
8592;SDS011;4334;49.982;8.398;2022-11-13T04:24:22;131.33;;;17.70;;
8592;SDS011;4334;49.982;8.398;2022-11-13T04:26:50;78.33;;;16.87;;
8592;SDS011;4334;49.982;8.398;2022-11-13T04:29:17;49.53;;;16.17;;
8592;SDS011;4334;49.982;8.398;2022-11-13T04:31:44;41.20;;;14.97;;
8592;SDS011;4334;49.982;8.398;2022-11-13T04:34:11;51.23;;;15.57;;
8592;SDS011;4334;49.982;8.398;2022-11-13T04:36:37;36.90;;;15.17;;
8592;SDS011;4334;49.982;8.398;2022-11-13T04:39:04;70.37;;;16.57;;
8592;SDS011;4334;49.982;8.398;2022-11-13T04:41:31;46.13;;;15.87;;
8592;SDS011;4334;49.982;8.398;2022-11-13T04:44:17;33.50;;;14.60;;
8592;SDS011;4334;49.982;8.398;2022-11-13T04:46:44;25.77;;;14.23;;
8592;SDS011;4334;49.982;8.398;2022-11-13T04:49:10;53.37;;;14.70;;
8592;SDS011;4334;49.982;8.398;2022-11-13T04:51:37;63.13;;;16.43;;
8592;SDS011;4334;49.982;8.398;2022-11-13T04:54:04;69.07;;;15.87;;
8592;SDS011;4334;49.982;8.398;2022-11-13T04:56:31;71.23;;;16.03;;
8592;SDS011;4334;49.982;8.398;2022-11-13T04:58:58;54.33;;;15.20;;
8592;SDS011;4334;49.982;8.398;2022-11-13T05:01:26;37.27;;;14.40;;
8592;SDS011;4334;49.982;8.398;2022-11-13T05:03:53;52.97;;;14.83;;
8592;SDS011;4334;49.982;8.398;2022-11-13T05:06:20;40.77;;;15.17;;
8592;SDS011;4334;49.982;8.398;2022-11-13T05:08:46;39.73;;;14.90;;
8592;SDS011;4334;49.982;8.398;2022-11-13T05:11:13;102.90;;;16.63;;
8592;SDS011;4334;49.982;8.398;2022-11-13T05:13:40;63.77;;;15.70;;
8592;SDS011;4334;49.982;8.398;2022-11-13T05:16:07;62.80;;;15.07;;
8592;SDS011;4334;49.982;8.398;2022-11-13T05:18:37;78.13;;;15.87;;
8592;SDS011;4334;49.982;8.398;2022-11-13T05:21:05;79.20;;;13.97;;
8592;SDS011;4334;49.982;8.398;2022-11-13T05:23:33;72.10;;;16.47;;
8592;SDS011;4334;49.982;8.398;2022-11-13T05:26:01;80.67;;;16.00;;
8592;SDS011;4334;49.982;8.398;2022-11-13T05:28:28;73.30;;;15.40;;
8592;SDS011;4334;49.982;8.398;2022-11-13T05:31:01;71.83;;;15.47;;
8592;SDS011;4334;49.982;8.398;2022-11-13T05:33:29;57.53;;;15.70;;
8592;SDS011;4334;49.982;8.398;2022-11-13T05:36:00;66.90;;;15.13;;
8592;SDS011;4334;49.982;8.398;2022-11-13T05:38:28;97.33;;;17.33;;
8592;SDS011;4334;49.982;8.398;2022-11-13T05:40:59;106.60;;;16.87;;
8592;SDS011;4334;49.982;8.398;2022-11-13T05:43:27;104.50;;;17.70;;
8592;SDS011;4334;49.982;8.398;2022-11-13T05:45:57;51.27;;;15.77;;
8592;SDS011;4334;49.982;8.398;2022-11-13T05:48:25;60.90;;;15.63;;
8592;SDS011;4334;49.982;8.398;2022-11-13T05:50:52;47.13;;;15.60;;
8592;SDS011;4334;49.982;8.398;2022-11-13T05:53:20;47.33;;;13.97;;
8592;SDS011;4334;49.982;8.398;2022-11-13T05:55:47;102.73;;;18.00;;
8592;SDS011;4334;49.982;8.398;2022-11-13T05:58:14;62.17;;;15.33;;
8592;SDS011;4334;49.982;8.398;2022-11-13T06:00:41;109.07;;;17.10;;
8592;SDS011;4334;49.982;8.398;2022-11-13T06:03:08;82.20;;;16.67;;
8592;SDS011;4334;49.982;8.398;2022-11-13T06:05:35;26.40;;;14.03;;
8592;SDS011;4334;49.982;8.398;2022-11-13T06:08:02;55.87;;;15.57;;
8592;SDS011;4334;49.982;8.398;2022-11-13T06:10:30;41.53;;;14.30;;
8592;SDS011;4334;49.982;8.398;2022-11-13T06:12:57;35.63;;;15.13;;
8592;SDS011;4334;49.982;8.398;2022-11-13T06:15:24;94.53;;;18.53;;
8592;SDS011;4334;49.982;8.398;2022-11-13T06:17:50;67.67;;;15.83;;
8592;SDS011;4334;49.982;8.398;2022-11-13T06:20:17;73.20;;;15.87;;
8592;SDS011;4334;49.982;8.398;2022-11-13T06:22:44;44.53;;;15.43;;
8592;SDS011;4334;49.982;8.398;2022-11-13T06:25:10;55.53;;;15.97;;
8592;SDS011;4334;49.982;8.398;2022-11-13T06:27:38;42.97;;;15.40;;
8592;SDS011;4334;49.982;8.398;2022-11-13T06:30:06;47.83;;;16.53;;
8592;SDS011;4334;49.982;8.398;2022-11-13T06:32:34;59.40;;;16.93;;
8592;SDS011;4334;49.982;8.398;2022-11-13T06:35:01;50.23;;;15.87;;
8592;SDS011;4334;49.982;8.398;2022-11-13T06:37:27;40.07;;;15.27;;
8592;SDS011;4334;49.982;8.398;2022-11-13T06:39:54;55.37;;;15.10;;
8592;SDS011;4334;49.982;8.398;2022-11-13T06:42:21;47.90;;;15.10;;
8592;SDS011;4334;49.982;8.398;2022-11-13T06:44:49;92.43;;;17.17;;
8592;SDS011;4334;49.982;8.398;2022-11-13T06:47:16;39.20;;;14.37;;
8592;SDS011;4334;49.982;8.398;2022-11-13T06:49:43;24.37;;;14.13;;
8592;SDS011;4334;49.982;8.398;2022-11-13T06:52:10;36.23;;;14.70;;
8592;SDS011;4334;49.982;8.398;2022-11-13T06:54:37;50.73;;;15.53;;
8592;SDS011;4334;49.982;8.398;2022-11-13T06:57:04;65.00;;;15.73;;
8592;SDS011;4334;49.982;8.398;2022-11-13T06:59:31;64.87;;;16.23;;
8592;SDS011;4334;49.982;8.398;2022-11-13T07:01:59;73.40;;;16.80;;
8592;SDS011;4334;49.982;8.398;2022-11-13T07:04:26;89.50;;;17.17;;
8592;SDS011;4334;49.982;8.398;2022-11-13T07:06:53;56.60;;;16.23;;
8592;SDS011;4334;49.982;8.398;2022-11-13T07:09:19;80.83;;;16.77;;
8592;SDS011;4334;49.982;8.398;2022-11-13T07:11:46;134.50;;;18.57;;
8592;SDS011;4334;49.982;8.398;2022-11-13T07:14:13;71.80;;;15.67;;
8592;SDS011;4334;49.982;8.398;2022-11-13T07:16:40;55.87;;;14.70;;
8592;SDS011;4334;49.982;8.398;2022-11-13T07:19:08;31.07;;;14.23;;
8592;SDS011;4334;49.982;8.398;2022-11-13T07:21:35;58.27;;;15.03;;
8592;SDS011;4334;49.982;8.398;2022-11-13T07:24:02;68.93;;;14.10;;
8592;SDS011;4334;49.982;8.398;2022-11-13T07:26:30;24.30;;;12.73;;
8592;SDS011;4334;49.982;8.398;2022-11-13T07:28:57;35.87;;;13.73;;
8592;SDS011;4334;49.982;8.398;2022-11-13T07:31:24;34.33;;;13.07;;
8592;SDS011;4334;49.982;8.398;2022-11-13T07:33:51;24.67;;;13.03;;
8592;SDS011;4334;49.982;8.398;2022-11-13T07:36:19;20.03;;;13.50;;
8592;SDS011;4334;49.982;8.398;2022-11-13T07:38:46;18.73;;;12.30;;
8592;SDS011;4334;49.982;8.398;2022-11-13T07:41:13;23.43;;;13.60;;
8592;SDS011;4334;49.982;8.398;2022-11-13T07:43:39;19.63;;;12.57;;
8592;SDS011;4334;49.982;8.398;2022-11-13T07:46:06;21.37;;;12.80;;
8592;SDS011;4334;49.982;8.398;2022-11-13T07:48:33;18.17;;;12.93;;
8592;SDS011;4334;49.982;8.398;2022-11-13T07:51:01;17.80;;;13.03;;
8592;SDS011;4334;49.982;8.398;2022-11-13T07:53:30;16.00;;;12.33;;
8592;SDS011;4334;49.982;8.398;2022-11-13T07:55:58;15.27;;;11.87;;
8592;SDS011;4334;49.982;8.398;2022-11-13T07:58:26;15.93;;;11.60;;
8592;SDS011;4334;49.982;8.398;2022-11-13T08:00:53;13.97;;;10.80;;
8592;SDS011;4334;49.982;8.398;2022-11-13T08:03:20;14.03;;;10.10;;
8592;SDS011;4334;49.982;8.398;2022-11-13T08:05:46;13.93;;;9.47;;
8592;SDS011;4334;49.982;8.398;2022-11-13T08:08:13;11.00;;;8.77;;
8592;SDS011;4334;49.982;8.398;2022-11-13T08:10:41;8.63;;;7.50;;
8592;SDS011;4334;49.982;8.398;2022-11-13T08:13:08;7.63;;;6.83;;
8592;SDS011;4334;49.982;8.398;2022-11-13T08:15:36;6.97;;;6.27;;
8592;SDS011;4334;49.982;8.398;2022-11-13T08:18:03;7.00;;;5.87;;
8592;SDS011;4334;49.982;8.398;2022-11-13T08:20:31;6.47;;;5.77;;
8592;SDS011;4334;49.982;8.398;2022-11-13T08:22:59;7.07;;;5.90;;
8592;SDS011;4334;49.982;8.398;2022-11-13T08:25:28;6.33;;;5.73;;
8592;SDS011;4334;49.982;8.398;2022-11-13T08:27:57;7.20;;;5.83;;
8592;SDS011;4334;49.982;8.398;2022-11-13T08:30:25;7.07;;;5.63;;
8592;SDS011;4334;49.982;8.398;2022-11-13T08:32:52;7.87;;;6.20;;
8592;SDS011;4334;49.982;8.398;2022-11-13T08:35:19;6.23;;;5.63;;
8592;SDS011;4334;49.982;8.398;2022-11-13T08:37:47;7.43;;;5.83;;
8592;SDS011;4334;49.982;8.398;2022-11-13T08:40:14;7.17;;;6.27;;
8592;SDS011;4334;49.982;8.398;2022-11-13T08:42:41;7.47;;;6.07;;
8592;SDS011;4334;49.982;8.398;2022-11-13T08:45:09;8.80;;;5.93;;
8592;SDS011;4334;49.982;8.398;2022-11-13T08:47:36;6.70;;;5.57;;
8592;SDS011;4334;49.982;8.398;2022-11-13T08:50:04;7.10;;;5.53;;
8592;SDS011;4334;49.982;8.398;2022-11-13T08:52:32;6.37;;;5.30;;
8592;SDS011;4334;49.982;8.398;2022-11-13T08:54:59;6.50;;;5.47;;
8592;SDS011;4334;49.982;8.398;2022-11-13T08:57:25;5.70;;;5.00;;
8592;SDS011;4334;49.982;8.398;2022-11-13T08:59:52;7.57;;;5.83;;
8592;SDS011;4334;49.982;8.398;2022-11-13T09:02:20;6.60;;;5.43;;
8592;SDS011;4334;49.982;8.398;2022-11-13T09:04:47;6.50;;;5.70;;
8592;SDS011;4334;49.982;8.398;2022-11-13T09:07:14;7.07;;;5.67;;
8592;SDS011;4334;49.982;8.398;2022-11-13T09:09:40;7.53;;;5.47;;
8592;SDS011;4334;49.982;8.398;2022-11-13T09:12:07;9.23;;;5.20;;
8592;SDS011;4334;49.982;8.398;2022-11-13T09:14:34;6.93;;;5.60;;
8592;SDS011;4334;49.982;8.398;2022-11-13T09:17:01;5.87;;;5.27;;
8592;SDS011;4334;49.982;8.398;2022-11-13T09:19:29;6.33;;;5.13;;
8592;SDS011;4334;49.982;8.398;2022-11-13T09:21:56;6.33;;;5.00;;
8592;SDS011;4334;49.982;8.398;2022-11-13T09:24:24;5.73;;;4.90;;
8592;SDS011;4334;49.982;8.398;2022-11-13T09:26:51;6.83;;;5.40;;
8592;SDS011;4334;49.982;8.398;2022-11-13T09:29:18;5.50;;;4.90;;
8592;SDS011;4334;49.982;8.398;2022-11-13T09:31:47;6.10;;;5.03;;
8592;SDS011;4334;49.982;8.398;2022-11-13T09:34:14;5.93;;;5.07;;
8592;SDS011;4334;49.982;8.398;2022-11-13T09:36:43;5.70;;;5.10;;
8592;SDS011;4334;49.982;8.398;2022-11-13T09:39:10;5.43;;;4.70;;
8592;SDS011;4334;49.982;8.398;2022-11-13T09:41:38;5.47;;;4.97;;
8592;SDS011;4334;49.982;8.398;2022-11-13T09:44:11;4.90;;;4.37;;
8592;SDS011;4334;49.982;8.398;2022-11-13T09:46:41;5.47;;;4.57;;
8592;SDS011;4334;49.982;8.398;2022-11-13T09:49:14;5.77;;;4.57;;
8592;SDS011;4334;49.982;8.398;2022-11-13T09:51:45;6.07;;;5.07;;
8592;SDS011;4334;49.982;8.398;2022-11-13T09:54:16;6.97;;;5.33;;
8592;SDS011;4334;49.982;8.398;2022-11-13T09:56:45;5.20;;;4.70;;
8592;SDS011;4334;49.982;8.398;2022-11-13T09:59:31;4.63;;;4.23;;
8592;SDS011;4334;49.982;8.398;2022-11-13T10:02:07;5.23;;;4.73;;
8592;SDS011;4334;49.982;8.398;2022-11-13T10:04:46;4.80;;;4.40;;
8592;SDS011;4334;49.982;8.398;2022-11-13T10:07:23;5.17;;;4.50;;
8592;SDS011;4334;49.982;8.398;2022-11-13T10:10:07;5.40;;;4.90;;
8592;SDS011;4334;49.982;8.398;2022-11-13T10:12:47;6.60;;;4.50;;
8592;SDS011;4334;49.982;8.398;2022-11-13T10:15:17;5.20;;;4.70;;
8592;SDS011;4334;49.982;8.398;2022-11-13T10:17:47;5.83;;;4.87;;
8592;SDS011;4334;49.982;8.398;2022-11-13T10:20:18;5.57;;;5.07;;
8592;SDS011;4334;49.982;8.398;2022-11-13T10:22:50;5.63;;;5.07;;
8592;SDS011;4334;49.982;8.398;2022-11-13T10:25:20;5.30;;;4.80;;
8592;SDS011;4334;49.982;8.398;2022-11-13T10:27:49;5.17;;;4.67;;
8592;SDS011;4334;49.982;8.398;2022-11-13T10:30:20;5.23;;;4.73;;
8592;SDS011;4334;49.982;8.398;2022-11-13T10:32:47;5.80;;;5.20;;
8592;SDS011;4334;49.982;8.398;2022-11-13T10:38:15;5.93;;;4.90;;
8592;SDS011;4334;49.982;8.398;2022-11-13T10:40:47;6.63;;;5.93;;
8592;SDS011;4334;49.982;8.398;2022-11-13T10:43:15;6.30;;;5.30;;
8592;SDS011;4334;49.982;8.398;2022-11-13T10:45:52;6.07;;;5.30;;
8592;SDS011;4334;49.982;8.398;2022-11-13T10:48:21;5.88;;;5.28;;
8592;SDS011;4334;49.982;8.398;2022-11-13T10:50:52;13.27;;;8.02;;
8592;SDS011;4334;49.982;8.398;2022-11-13T10:53:22;6.30;;;5.40;;
8592;SDS011;4334;49.982;8.398;2022-11-13T10:55:51;6.03;;;5.53;;
8592;SDS011;4334;49.982;8.398;2022-11-13T10:58:22;6.57;;;5.93;;
8592;SDS011;4334;49.982;8.398;2022-11-13T11:00:49;6.25;;;5.15;;
8592;SDS011;4334;49.982;8.398;2022-11-13T11:03:18;5.65;;;5.10;;
8592;SDS011;4334;49.982;8.398;2022-11-13T11:05:52;5.30;;;4.80;;
8592;SDS011;4334;49.982;8.398;2022-11-13T11:08:23;7.65;;;5.88;;
8592;SDS011;4334;49.982;8.398;2022-11-13T11:10:56;5.57;;;5.07;;
8592;SDS011;4334;49.982;8.398;2022-11-13T11:13:42;7.05;;;5.03;;
8592;SDS011;4334;49.982;8.398;2022-11-13T11:16:10;5.90;;;5.13;;
8592;SDS011;4334;49.982;8.398;2022-11-13T11:18:43;6.13;;;5.30;;
8592;SDS011;4334;49.982;8.398;2022-11-13T11:21:15;5.93;;;4.80;;
8592;SDS011;4334;49.982;8.398;2022-11-13T11:23:48;5.43;;;4.93;;
8592;SDS011;4334;49.982;8.398;2022-11-13T11:26:23;6.70;;;4.90;;
8592;SDS011;4334;49.982;8.398;2022-11-13T11:28:59;5.38;;;4.82;;
8592;SDS011;4334;49.982;8.398;2022-11-13T11:31:40;5.15;;;4.38;;
8592;SDS011;4334;49.982;8.398;2022-11-13T11:34:14;5.60;;;5.07;;
8592;SDS011;4334;49.982;8.398;2022-11-13T11:36:46;6.57;;;4.93;;
8592;SDS011;4334;49.982;8.398;2022-11-13T11:39:30;5.40;;;4.90;;
8592;SDS011;4334;49.982;8.398;2022-11-13T11:42:03;5.70;;;5.15;;
8592;SDS011;4334;49.982;8.398;2022-11-13T11:44:41;6.45;;;5.13;;
8592;SDS011;4334;49.982;8.398;2022-11-13T11:47:15;5.35;;;4.78;;
8592;SDS011;4334;49.982;8.398;2022-11-13T11:49:43;13.93;;;12.52;;
8592;SDS011;4334;49.982;8.398;2022-11-13T11:52:16;6.47;;;5.07;;
8592;SDS011;4334;49.982;8.398;2022-11-13T11:54:53;5.80;;;5.30;;
8592;SDS011;4334;49.982;8.398;2022-11-13T11:57:35;4.97;;;4.47;;
8592;SDS011;4334;49.982;8.398;2022-11-13T12:00:12;4.80;;;4.32;;
8592;SDS011;4334;49.982;8.398;2022-11-13T12:02:55;5.47;;;4.72;;
8592;SDS011;4334;49.982;8.398;2022-11-13T12:05:39;5.10;;;4.60;;
8592;SDS011;4334;49.982;8.398;2022-11-13T12:08:16;6.63;;;4.47;;
8592;SDS011;4334;49.982;8.398;2022-11-13T12:10:51;4.75;;;4.07;;
8592;SDS011;4334;49.982;8.398;2022-11-13T12:13:27;4.50;;;4.10;;
8592;SDS011;4334;49.982;8.398;2022-11-13T12:15:59;8.13;;;4.32;;
8592;SDS011;4334;49.982;8.398;2022-11-13T12:18:34;4.75;;;3.83;;
8592;SDS011;4334;49.982;8.398;2022-11-13T12:21:15;5.13;;;3.90;;
8592;SDS011;4334;49.982;8.398;2022-11-13T12:23:51;5.57;;;3.80;;
8592;SDS011;4334;49.982;8.398;2022-11-13T12:26:29;4.28;;;3.50;;
8592;SDS011;4334;49.982;8.398;2022-11-13T12:29:03;3.60;;;3.30;;
8592;SDS011;4334;49.982;8.398;2022-11-13T12:31:45;3.92;;;3.30;;
8592;SDS011;4334;49.982;8.398;2022-11-13T12:34:30;6.55;;;3.10;;
8592;SDS011;4334;49.982;8.398;2022-11-13T12:37:05;4.32;;;3.30;;
8592;SDS011;4334;49.982;8.398;2022-11-13T12:39:38;4.07;;;3.42;;
8592;SDS011;4334;49.982;8.398;2022-11-13T12:42:17;5.63;;;3.58;;
8592;SDS011;4334;49.982;8.398;2022-11-13T12:44:48;4.15;;;3.60;;
8592;SDS011;4334;49.982;8.398;2022-11-13T12:47:22;3.70;;;3.17;;
8592;SDS011;4334;49.982;8.398;2022-11-13T12:49:57;5.82;;;3.70;;
8592;SDS011;4334;49.982;8.398;2022-11-13T12:52:26;5.45;;;3.40;;
8592;SDS011;4334;49.982;8.398;2022-11-13T12:55:02;3.50;;;3.20;;
8592;SDS011;4334;49.982;8.398;2022-11-13T12:57:32;4.18;;;3.28;;
8592;SDS011;4334;49.982;8.398;2022-11-13T13:00:09;3.70;;;3.40;;
8592;SDS011;4334;49.982;8.398;2022-11-13T13:02:51;4.07;;;3.60;;
8592;SDS011;4334;49.982;8.398;2022-11-13T13:05:34;4.80;;;3.00;;
8592;SDS011;4334;49.982;8.398;2022-11-13T13:08:30;3.47;;;2.55;;
8592;SDS011;4334;49.982;8.398;2022-11-13T13:11:15;2.90;;;2.53;;
8592;SDS011;4334;49.982;8.398;2022-11-13T13:13:48;3.33;;;2.72;;
8592;SDS011;4334;49.982;8.398;2022-11-13T13:16:22;3.65;;;2.80;;
8592;SDS011;4334;49.982;8.398;2022-11-13T13:18:51;4.47;;;2.50;;
8592;SDS011;4334;49.982;8.398;2022-11-13T13:21:19;2.90;;;2.60;;
8592;SDS011;4334;49.982;8.398;2022-11-13T13:23:47;2.72;;;2.38;;
8592;SDS011;4334;49.982;8.398;2022-11-13T13:26:16;2.95;;;2.63;;
8592;SDS011;4334;49.982;8.398;2022-11-13T13:28:46;3.50;;;2.67;;
8592;SDS011;4334;49.982;8.398;2022-11-13T13:31:30;2.90;;;2.58;;
8592;SDS011;4334;49.982;8.398;2022-11-13T13:34:14;5.07;;;2.65;;
8592;SDS011;4334;49.982;8.398;2022-11-13T13:36:52;3.42;;;2.60;;
8592;SDS011;4334;49.982;8.398;2022-11-13T13:39:26;3.03;;;2.72;;
8592;SDS011;4334;49.982;8.398;2022-11-13T13:42:05;3.15;;;2.63;;
8592;SDS011;4334;49.982;8.398;2022-11-13T13:47:35;2.45;;;2.20;;
8592;SDS011;4334;49.982;8.398;2022-11-13T13:50:04;2.88;;;2.40;;
8592;SDS011;4334;49.982;8.398;2022-11-13T13:52:33;2.83;;;2.20;;
8592;SDS011;4334;49.982;8.398;2022-11-13T13:55:03;5.53;;;2.50;;
8592;SDS011;4334;49.982;8.398;2022-11-13T13:57:32;3.93;;;2.47;;
8592;SDS011;4334;49.982;8.398;2022-11-13T14:00:10;3.90;;;2.80;;
8592;SDS011;4334;49.982;8.398;2022-11-13T14:02:43;3.10;;;2.67;;
8592;SDS011;4334;49.982;8.398;2022-11-13T14:05:16;3.37;;;2.70;;
8592;SDS011;4334;49.982;8.398;2022-11-13T14:07:51;4.37;;;2.77;;
8592;SDS011;4334;49.982;8.398;2022-11-13T14:10:18;3.70;;;3.17;;
8592;SDS011;4334;49.982;8.398;2022-11-13T14:12:47;3.27;;;2.97;;
8592;SDS011;4334;49.982;8.398;2022-11-13T14:15:25;3.77;;;2.80;;
8592;SDS011;4334;49.982;8.398;2022-11-13T14:18:04;6.00;;;3.33;;
8592;SDS011;4334;49.982;8.398;2022-11-13T14:20:38;4.23;;;3.23;;
8592;SDS011;4334;49.982;8.398;2022-11-13T14:23:08;3.60;;;3.00;;
8592;SDS011;4334;49.982;8.398;2022-11-13T14:25:37;3.90;;;3.10;;
8592;SDS011;4334;49.982;8.398;2022-11-13T14:28:10;4.47;;;3.23;;
8592;SDS011;4334;49.982;8.398;2022-11-13T14:30:41;4.80;;;3.50;;
8592;SDS011;4334;49.982;8.398;2022-11-13T14:33:08;4.43;;;3.60;;
8592;SDS011;4334;49.982;8.398;2022-11-13T14:35:40;4.00;;;3.60;;
8592;SDS011;4334;49.982;8.398;2022-11-13T14:38:16;5.33;;;3.60;;
8592;SDS011;4334;49.982;8.398;2022-11-13T14:40:45;4.67;;;3.67;;
8592;SDS011;4334;49.982;8.398;2022-11-13T14:43:15;6.00;;;3.50;;
8592;SDS011;4334;49.982;8.398;2022-11-13T14:45:52;4.97;;;3.80;;
8592;SDS011;4334;49.982;8.398;2022-11-13T14:48:22;5.20;;;3.40;;
8592;SDS011;4334;49.982;8.398;2022-11-13T14:50:51;4.37;;;3.60;;
8592;SDS011;4334;49.982;8.398;2022-11-13T14:53:26;4.53;;;3.63;;
8592;SDS011;4334;49.982;8.398;2022-11-13T14:55:56;4.40;;;3.60;;
8592;SDS011;4334;49.982;8.398;2022-11-13T14:58:25;4.10;;;3.70;;
8592;SDS011;4334;49.982;8.398;2022-11-13T15:00:55;4.70;;;3.53;;
8592;SDS011;4334;49.982;8.398;2022-11-13T15:03:23;6.17;;;3.70;;
8592;SDS011;4334;49.982;8.398;2022-11-13T15:05:51;4.83;;;3.70;;
8592;SDS011;4334;49.982;8.398;2022-11-13T15:08:18;5.47;;;3.93;;
8592;SDS011;4334;49.982;8.398;2022-11-13T15:10:46;5.37;;;4.27;;
8592;SDS011;4334;49.982;8.398;2022-11-13T15:13:13;5.27;;;3.90;;
8592;SDS011;4334;49.982;8.398;2022-11-13T15:15:41;6.23;;;3.97;;
8592;SDS011;4334;49.982;8.398;2022-11-13T15:18:12;6.60;;;4.77;;